createdAt,value
2022-08-17T00:00:01.516Z,95986.06
2022-08-17T00:02:29.229Z,95987.91
2022-08-17T00:04:57.994Z,95983.38
2022-08-17T00:07:24.853Z,95983.84
2022-08-17T00:09:51.678Z,95979.28
2022-08-17T00:12:43.380Z,95981.06
2022-08-17T00:15:09.180Z,95991.84
2022-08-17T00:17:37.895Z,95990.25
2022-08-17T00:20:06.001Z,95994.03
2022-08-17T00:22:36.385Z,95991.81
2022-08-17T00:25:13.679Z,95990.66
2022-08-17T00:27:41.125Z,95992.97
2022-08-17T00:30:11.614Z,95989.91
2022-08-17T00:33:12.633Z,95990.97
2022-08-17T00:35:32.524Z,95991.25
2022-08-17T00:37:59.502Z,95991.00
2022-08-17T00:40:26.900Z,95986.75
2022-08-17T00:43:26.423Z,95977.16
2022-08-17T00:45:54.955Z,95984.69
2022-08-17T00:48:28.994Z,95978.53
2022-08-17T00:51:41.397Z,95984.97
2022-08-17T00:54:24.928Z,95981.19
2022-08-17T00:57:07.614Z,95977.47
2022-08-17T00:59:44.631Z,95965.47
2022-08-17T01:02:15.018Z,95974.00
2022-08-17T01:04:45.056Z,95974.25
2022-08-17T01:07:12.934Z,95969.66
2022-08-17T01:09:42.629Z,95974.03
2022-08-17T01:12:10.667Z,95963.16
2022-08-17T01:14:39.020Z,95961.88
2022-08-17T01:17:07.069Z,95954.47
2022-08-17T01:19:37.805Z,95961.72
2022-08-17T01:22:14.321Z,95955.16
2022-08-17T01:24:48.761Z,95965.78
2022-08-17T01:27:18.530Z,95964.78
2022-08-17T01:29:53.099Z,95964.75
2022-08-17T01:32:20.492Z,95953.06
2022-08-17T01:34:50.439Z,95959.47
2022-08-17T01:37:21.113Z,95963.72
2022-08-17T01:39:59.424Z,95958.47
2022-08-17T01:42:52.189Z,95963.66
2022-08-17T01:45:26.627Z,95960.88
2022-08-17T01:47:54.515Z,95954.53
2022-08-17T01:50:29.297Z,95953.00
2022-08-17T01:53:00.582Z,95959.09
2022-08-17T01:55:34.255Z,95965.19
2022-08-17T01:58:01.310Z,95965.03
2022-08-17T02:00:46.769Z,95964.41
2022-08-17T02:03:16.268Z,95961.16
2022-08-17T02:05:44.483Z,95959.94
2022-08-17T02:08:19.824Z,95954.03
2022-08-17T02:10:49.906Z,95959.25
2022-08-17T02:13:19.613Z,95958.16
2022-08-17T02:15:47.050Z,95953.00
2022-08-17T02:18:15.850Z,95951.81
2022-08-17T02:20:43.169Z,95950.53
2022-08-17T02:23:13.028Z,95946.81
2022-08-17T02:25:43.373Z,95945.69
2022-08-17T02:28:10.657Z,95946.69
2022-08-17T02:31:00.969Z,95951.88
2022-08-17T02:33:24.888Z,95944.81
2022-08-17T02:36:10.350Z,95944.28
2022-08-17T02:38:39.373Z,95960.13
2022-08-17T02:41:06.716Z,95955.81
2022-08-17T02:43:33.825Z,95953.88
2022-08-17T02:46:00.680Z,95950.94
2022-08-17T02:48:30.710Z,95945.06
2022-08-17T02:51:00.449Z,95938.16
2022-08-17T02:53:27.982Z,95934.38
2022-08-17T02:56:02.713Z,95937.09
2022-08-17T02:58:35.115Z,95926.53
2022-08-17T03:01:09.645Z,95925.56
2022-08-17T03:03:38.229Z,95929.88
2022-08-17T03:06:07.646Z,95928.16
2022-08-17T03:08:35.223Z,95929.75
2022-08-17T03:11:02.058Z,95929.50
2022-08-17T03:13:30.657Z,95927.53
2022-08-17T03:15:57.618Z,95934.03
2022-08-17T03:18:26.322Z,95920.22
2022-08-17T03:20:56.721Z,95925.06
2022-08-17T03:23:25.710Z,95917.19
2022-08-17T03:25:54.330Z,95924.22
2022-08-17T03:28:22.329Z,95913.09
2022-08-17T03:30:51.081Z,95911.00
2022-08-17T03:33:19.275Z,95913.63
2022-08-17T03:35:46.788Z,95912.03
2022-08-17T03:38:15.867Z,95913.06
2022-08-17T03:40:56.648Z,95911.41
2022-08-17T03:43:30.394Z,95923.28
2022-08-17T03:46:28.423Z,95924.53
2022-08-17T03:49:26.037Z,95944.03
2022-08-17T03:52:16.234Z,95933.06
2022-08-17T03:55:03.401Z,95939.72
2022-08-17T03:57:31.985Z,95935.88
2022-08-17T03:59:59.698Z,95940.97
2022-08-17T04:02:32.963Z,95939.56
2022-08-17T04:05:00.611Z,95950.13
2022-08-17T04:07:30.355Z,95951.63
2022-08-17T04:09:58.156Z,95953.22
2022-08-17T04:12:30.524Z,95957.56
2022-08-17T04:14:58.266Z,95956.94
2022-08-17T04:17:28.763Z,95967.38
2022-08-17T04:19:56.114Z,95962.88
2022-08-17T04:22:30.954Z,95971.72
2022-08-17T04:24:59.306Z,95960.44
2022-08-17T04:27:26.143Z,95966.91
2022-08-17T04:29:54.905Z,95970.03
2022-08-17T04:33:05.090Z,95959.56
2022-08-17T04:35:10.186Z,95957.31
2022-08-17T04:37:37.583Z,95951.59
2022-08-17T04:40:27.518Z,95947.94
2022-08-17T04:43:16.451Z,95964.97
2022-08-17T04:45:55.779Z,95958.97
2022-08-17T04:48:27.878Z,95957.03
2022-08-17T04:51:04.846Z,95959.25
2022-08-17T04:53:31.793Z,95958.56
2022-08-17T04:55:59.059Z,95947.41
2022-08-17T04:58:26.133Z,95954.94
2022-08-17T05:00:53.353Z,95958.94
2022-08-17T05:03:20.177Z,95953.75
2022-08-17T05:05:50.007Z,95953.81
2022-08-17T05:08:19.848Z,95951.56
2022-08-17T05:10:48.802Z,95950.31
2022-08-17T05:13:22.911Z,95945.13
2022-08-17T05:15:55.087Z,95947.88
2022-08-17T05:18:22.128Z,95945.28
2022-08-17T05:20:52.596Z,95945.91
2022-08-17T05:23:22.603Z,95948.44
2022-08-17T05:25:52.277Z,95945.03
2022-08-17T05:28:24.207Z,95948.03
2022-08-17T05:30:57.896Z,95945.94
2022-08-17T05:33:29.271Z,95954.50
2022-08-17T05:35:59.201Z,95958.00
2022-08-17T05:38:28.346Z,95958.56
2022-08-17T05:40:55.893Z,95955.91
2022-08-17T05:43:30.172Z,95950.03
2022-08-17T05:46:24.268Z,95952.69
2022-08-17T05:48:56.558Z,95959.09
2022-08-17T05:51:38.512Z,95964.66
2022-08-17T05:54:42.552Z,95953.66
2022-08-17T05:57:34.657Z,95957.31
2022-08-17T06:00:30.118Z,95961.00
2022-08-17T06:03:14.762Z,95962.41
2022-08-17T06:06:03.299Z,95966.53
2022-08-17T06:09:02.242Z,95965.03
2022-08-17T06:11:37.303Z,95975.81
2022-08-17T06:14:44.665Z,95978.25
2022-08-17T06:17:15.979Z,95983.91
2022-08-17T06:19:51.399Z,95990.16
2022-08-17T06:22:22.857Z,95987.09
2022-08-17T06:25:25.914Z,95982.94
2022-08-17T06:28:30.090Z,95994.50
2022-08-17T06:31:07.188Z,95991.06
2022-08-17T06:33:37.693Z,95993.34
2022-08-17T06:36:26.435Z,95998.22
2022-08-17T06:39:26.442Z,95996.59
2022-08-17T06:43:05.150Z,95995.53
2022-08-17T06:45:31.202Z,95986.91
2022-08-17T06:48:33.851Z,95993.13
2022-08-17T06:51:25.876Z,95991.13
2022-08-17T06:54:26.069Z,95997.44
2022-08-17T06:57:02.511Z,96000.25
2022-08-17T06:59:55.362Z,95990.31
2022-08-17T07:02:58.724Z,95996.00
2022-08-17T07:05:44.756Z,96000.06
2022-08-17T07:08:35.583Z,96003.25
2022-08-17T07:11:07.929Z,95995.00
2022-08-17T07:13:56.997Z,95997.50
2022-08-17T07:16:39.233Z,96008.66
2022-08-17T07:19:07.544Z,96007.41
2022-08-17T07:21:56.227Z,96015.47
2022-08-17T07:24:51.602Z,96010.53
2022-08-17T07:27:42.843Z,95999.44
2022-08-17T07:30:16.384Z,96009.06
2022-08-17T07:32:46.337Z,96011.84
2022-08-17T07:35:23.007Z,96008.13
2022-08-17T07:38:28.417Z,96010.00
2022-08-17T07:41:01.075Z,96010.63
2022-08-17T07:43:54.557Z,96006.53
2022-08-17T07:46:53.054Z,96011.56
2022-08-17T07:49:41.606Z,96011.84
2022-08-17T07:52:50.573Z,96012.78
2022-08-17T07:55:34.861Z,96012.38
2022-08-17T07:58:02.000Z,96012.38
2022-08-17T08:00:32.395Z,96012.88
2022-08-17T08:03:27.115Z,96022.91
2022-08-17T08:06:03.206Z,96019.00
2022-08-17T08:08:42.150Z,96022.53
2022-08-17T08:11:16.773Z,96026.34
2022-08-17T08:13:45.555Z,96029.69
2022-08-17T08:16:24.232Z,96038.31
2022-08-17T08:18:57.708Z,96027.06
2022-08-17T08:21:47.168Z,96018.19
2022-08-17T08:24:46.160Z,96021.41
2022-08-17T08:27:46.243Z,96015.53
2022-08-17T08:30:21.211Z,96028.53
2022-08-17T08:33:09.182Z,96033.50
2022-08-17T08:35:56.149Z,96031.59
2022-08-17T08:38:44.988Z,96025.59
2022-08-17T08:41:24.071Z,96024.38
2022-08-17T08:44:08.404Z,96020.75
2022-08-17T08:46:53.136Z,96004.41
2022-08-17T08:50:01.239Z,96014.63
2022-08-17T08:53:00.176Z,96017.56
2022-08-17T08:56:03.864Z,96013.09
2022-08-17T08:58:43.526Z,96010.88
2022-08-17T09:01:39.130Z,96019.44
2022-08-17T09:05:10.755Z,96005.25
2022-08-17T09:07:54.642Z,96005.38
2022-08-17T09:10:57.500Z,96003.09
2022-08-17T09:14:00.381Z,96001.31
2022-08-17T09:17:09.129Z,95996.53
2022-08-17T09:19:56.998Z,96001.88
2022-08-17T09:22:34.434Z,96005.34
2022-08-17T09:25:16.710Z,95999.13
2022-08-17T09:28:03.687Z,95993.78
2022-08-17T09:30:46.323Z,95994.13
2022-08-17T09:33:22.740Z,95989.81
2022-08-17T09:36:26.306Z,95976.47
2022-08-17T09:39:13.206Z,95989.59
2022-08-17T09:41:49.313Z,95999.78
2022-08-17T09:44:41.549Z,96005.22
2022-08-17T09:47:42.029Z,96004.78
2022-08-17T09:51:03.387Z,96008.06
2022-08-17T09:53:32.036Z,96006.31
2022-08-17T09:56:31.570Z,96010.78
2022-08-17T09:59:38.176Z,95998.78
2022-08-17T10:02:54.383Z,95998.97
2022-08-17T10:05:57.115Z,95974.56
2022-08-17T10:09:16.060Z,95976.63
2022-08-17T10:12:12.708Z,95978.47
2022-08-17T10:14:53.401Z,95979.44
2022-08-17T10:17:56.298Z,95979.53
2022-08-17T10:20:31.701Z,95987.78
2022-08-17T10:23:56.256Z,95986.00
2022-08-17T10:26:26.332Z,95981.56
2022-08-17T10:28:59.990Z,95982.72
2022-08-17T10:31:40.132Z,95976.09
2022-08-17T10:34:51.801Z,95979.81
2022-08-17T10:37:53.636Z,95964.59
2022-08-17T10:40:54.390Z,95963.16
2022-08-17T10:44:38.043Z,95967.19
2022-08-17T10:47:14.354Z,95967.28
2022-08-17T10:49:49.498Z,95970.88
2022-08-17T10:52:30.390Z,95969.03
2022-08-17T10:55:17.802Z,95965.91
2022-08-17T10:57:50.084Z,95964.22
2022-08-17T11:00:28.393Z,95965.72
2022-08-17T11:02:57.478Z,95962.84
2022-08-17T11:05:52.221Z,95982.44
2022-08-17T11:08:56.902Z,95978.53
2022-08-17T11:11:47.392Z,95988.13
2022-08-17T11:14:41.841Z,95979.31
2022-08-17T11:18:01.454Z,95975.16
2022-08-17T11:20:49.237Z,95966.94
2022-08-17T11:23:35.392Z,95968.53
2022-08-17T11:26:19.018Z,95985.94
2022-08-17T11:28:54.295Z,95981.34
2022-08-17T11:31:46.553Z,95973.34
2022-08-17T11:34:26.410Z,95978.09
2022-08-17T11:37:03.650Z,95962.31
2022-08-17T11:40:08.965Z,95977.25
2022-08-17T11:42:54.587Z,95964.81
2022-08-17T11:45:36.401Z,95960.13
2022-08-17T11:49:25.642Z,95961.47
2022-08-17T11:52:01.245Z,95960.53
2022-08-17T11:54:33.649Z,95962.44
2022-08-17T11:57:25.474Z,95965.44
2022-08-17T12:00:12.398Z,95967.31
2022-08-17T12:02:48.254Z,95970.47
2022-08-17T12:05:16.856Z,95965.09
2022-08-17T12:07:51.915Z,95964.75
2022-08-17T12:10:31.490Z,95963.31
2022-08-17T12:13:06.403Z,95972.38
2022-08-17T12:15:41.576Z,95971.28
2022-08-17T12:18:08.950Z,95977.53
2022-08-17T12:20:41.432Z,95981.72
2022-08-17T12:23:28.018Z,95969.97
2022-08-17T12:26:17.578Z,95970.00
2022-08-17T12:28:55.886Z,95967.22
2022-08-17T12:31:44.902Z,95965.09
2022-08-17T12:34:27.740Z,95964.50
2022-08-17T12:37:22.427Z,95954.44
2022-08-17T12:39:59.183Z,95952.09
2022-08-17T12:42:37.702Z,95960.72
2022-08-17T12:45:07.806Z,95951.56
2022-08-17T12:47:38.037Z,95956.50
2022-08-17T12:50:28.881Z,95952.25
2022-08-17T12:53:01.732Z,95948.19
2022-08-17T12:55:32.606Z,95945.66
2022-08-17T12:58:02.359Z,95947.13
2022-08-17T13:00:35.239Z,95929.81
2022-08-17T13:03:13.282Z,95932.53
2022-08-17T13:05:54.147Z,95934.19
2022-08-17T13:08:35.469Z,95924.72
2022-08-17T13:11:20.899Z,95932.84
2022-08-17T13:13:53.341Z,95933.75
2022-08-17T13:16:26.718Z,95928.66
2022-08-17T13:18:55.272Z,95926.25
2022-08-17T13:21:30.466Z,95929.03
2022-08-17T13:24:13.732Z,95918.84
2022-08-17T13:27:08.234Z,95929.84
2022-08-17T13:29:51.528Z,95927.84
2022-08-17T13:32:43.854Z,95906.16
2022-08-17T13:35:44.145Z,95909.63
2022-08-17T13:38:49.631Z,95903.59
2022-08-17T13:41:35.882Z,95903.91
2022-08-17T13:44:37.019Z,95908.56
2022-08-17T13:47:16.328Z,95906.78
2022-08-17T13:49:49.274Z,95902.59
2022-08-17T13:52:52.382Z,95908.91
2022-08-17T13:55:22.022Z,95912.25
2022-08-17T13:57:57.786Z,95904.59
2022-08-17T14:00:36.298Z,95909.16
2022-08-17T14:03:05.464Z,95908.03
2022-08-17T14:05:33.706Z,95907.22
2022-08-17T14:08:06.503Z,95901.16
2022-08-17T14:10:36.257Z,95905.09
2022-08-17T14:13:03.552Z,95910.91
2022-08-17T14:15:56.108Z,95907.81
2022-08-17T14:18:35.480Z,95908.97
2022-08-17T14:21:08.381Z,95901.25
2022-08-17T14:23:36.660Z,95903.56
2022-08-17T14:26:03.889Z,95886.59
2022-08-17T14:28:30.730Z,95881.47
2022-08-17T14:31:00.685Z,95877.25
2022-08-17T14:33:28.882Z,95877.16
2022-08-17T14:35:57.436Z,95873.69
2022-08-17T14:38:24.648Z,95878.84
2022-08-17T14:40:51.843Z,95873.13
2022-08-17T14:43:20.393Z,95861.59
2022-08-17T14:45:47.529Z,95854.66
2022-08-17T14:48:14.459Z,95850.88
2022-08-17T14:50:43.189Z,95844.09
2022-08-17T14:53:12.693Z,95844.47
2022-08-17T14:55:40.352Z,95843.53
2022-08-17T14:58:08.675Z,95839.53
2022-08-17T15:00:39.358Z,95833.00
2022-08-17T15:03:06.255Z,95831.81
2022-08-17T15:05:37.135Z,95840.19
2022-08-17T15:08:05.617Z,95831.03
2022-08-17T15:10:33.210Z,95830.31
2022-08-17T15:13:00.622Z,95821.13
2022-08-17T15:15:28.782Z,95812.41
2022-08-17T15:17:56.031Z,95826.06
2022-08-17T15:20:27.915Z,95821.50
2022-08-17T15:22:56.134Z,95836.53
2022-08-17T15:25:27.418Z,95827.56
2022-08-17T15:27:55.808Z,95839.66
2022-08-17T15:30:23.533Z,95841.56
2022-08-17T15:32:54.557Z,95840.72
2022-08-17T15:35:28.388Z,95835.38
2022-08-17T15:38:10.720Z,95840.25
2022-08-17T15:40:46.674Z,95850.41
2022-08-17T15:43:27.746Z,95849.63
2022-08-17T15:46:00.246Z,95850.94
2022-08-17T15:48:42.083Z,95864.25
2022-08-17T15:51:21.356Z,95870.94
2022-08-17T15:53:52.920Z,95864.38
2022-08-17T15:56:20.560Z,95858.88
2022-08-17T15:58:48.846Z,95864.63
2022-08-17T16:01:35.160Z,95866.63
2022-08-17T16:04:26.487Z,95860.03
2022-08-17T16:06:54.223Z,95857.31
2022-08-17T16:09:21.046Z,95857.94
2022-08-17T16:11:52.185Z,95864.84
2022-08-17T16:14:22.575Z,95868.13
2022-08-17T16:16:51.076Z,95867.97
2022-08-17T16:19:17.928Z,95867.56
2022-08-17T16:21:44.807Z,95858.44
2022-08-17T16:24:13.080Z,95862.56
2022-08-17T16:26:40.868Z,95866.25
2022-08-17T16:29:08.904Z,95861.25
2022-08-17T16:31:37.593Z,95856.44
2022-08-17T16:34:17.354Z,95854.03
2022-08-17T16:36:54.722Z,95849.78
2022-08-17T16:39:26.348Z,95856.56
2022-08-17T16:41:53.328Z,95852.00
2022-08-17T16:44:21.726Z,95848.63
2022-08-17T16:46:50.249Z,95849.78
2022-08-17T16:49:25.711Z,95852.72
2022-08-17T16:52:07.431Z,95845.09
2022-08-17T16:54:35.374Z,95846.09
2022-08-17T16:57:05.033Z,95837.94
2022-08-17T16:59:40.720Z,95841.31
2022-08-17T17:02:11.270Z,95842.72
2022-08-17T17:04:53.664Z,95837.63
2022-08-17T17:08:03.360Z,95821.56
2022-08-17T17:10:45.696Z,95822.13
2022-08-17T17:13:35.591Z,95821.25
2022-08-17T17:16:28.531Z,95821.50
2022-08-17T17:19:10.750Z,95824.56
2022-08-17T17:21:47.212Z,95827.50
2022-08-17T17:24:25.135Z,95814.81
2022-08-17T17:26:56.715Z,95814.50
2022-08-17T17:30:04.595Z,95801.00
2022-08-17T17:32:56.458Z,95805.31
2022-08-17T17:35:34.588Z,95806.44
2022-08-17T17:38:15.313Z,95801.81
2022-08-17T17:40:50.763Z,95799.88
2022-08-17T17:43:38.157Z,95813.84
2022-08-17T17:46:28.278Z,95810.28
2022-08-17T17:48:59.334Z,95816.25
2022-08-17T17:52:08.729Z,95819.53
2022-08-17T17:55:08.305Z,95816.41
2022-08-17T17:57:44.802Z,95808.38
2022-08-17T18:00:24.545Z,95816.44
2022-08-17T18:03:19.390Z,95811.66
2022-08-17T18:06:10.320Z,95814.94
2022-08-17T18:09:10.250Z,95804.84
2022-08-17T18:12:05.355Z,95798.94
2022-08-17T18:15:09.948Z,95807.16
2022-08-17T18:17:36.997Z,95802.38
2022-08-17T18:20:07.353Z,95799.44
2022-08-17T18:22:34.278Z,95796.00
2022-08-17T18:25:01.500Z,95791.91
2022-08-17T18:27:39.484Z,95788.09
2022-08-17T18:30:12.480Z,95786.53
2022-08-17T18:32:46.718Z,95798.56
2022-08-17T18:35:16.168Z,95794.44
2022-08-17T18:38:20.098Z,95795.34
2022-08-17T18:41:20.083Z,95797.88
2022-08-17T18:44:05.541Z,95803.28
2022-08-17T18:46:36.571Z,95804.88
2022-08-17T18:49:28.947Z,95811.53
2022-08-17T18:52:28.808Z,95813.09
2022-08-17T18:55:13.206Z,95807.81
2022-08-17T18:57:52.299Z,95804.78
2022-08-17T19:00:32.086Z,95803.22
2022-08-17T19:03:16.748Z,95805.69
2022-08-17T19:05:54.670Z,95810.75
2022-08-17T19:08:33.557Z,95810.06
2022-08-17T19:11:10.423Z,95810.66
2022-08-17T19:13:53.605Z,95805.28
2022-08-17T19:16:27.396Z,95795.56
2022-08-17T19:19:19.571Z,95799.16
2022-08-17T19:21:59.521Z,95790.72
2022-08-17T19:24:30.949Z,95784.53
2022-08-17T19:27:08.014Z,95775.47
2022-08-17T19:29:57.997Z,95767.97
2022-08-17T19:32:34.287Z,95770.16
2022-08-17T19:35:03.115Z,95772.84
2022-08-17T19:37:58.877Z,95788.91
2022-08-17T19:40:52.743Z,95797.03
2022-08-17T19:43:51.425Z,95803.56
2022-08-17T19:46:50.688Z,95807.75
2022-08-17T19:49:45.568Z,95813.00
2022-08-17T19:52:47.422Z,95815.69
2022-08-17T19:55:53.697Z,95814.09
2022-08-17T19:58:48.294Z,95824.88
2022-08-17T20:01:45.496Z,95814.75
2022-08-17T20:04:32.446Z,95823.31
2022-08-17T20:07:54.569Z,95814.63
2022-08-17T20:11:18.403Z,95825.03
2022-08-17T20:14:00.078Z,95834.66
2022-08-17T20:16:27.109Z,95830.28
2022-08-17T20:19:08.786Z,95833.13
2022-08-17T20:22:04.353Z,95833.25
2022-08-17T20:24:51.093Z,95840.34
2022-08-17T20:27:32.152Z,95825.88
2022-08-17T20:29:59.091Z,95837.44
2022-08-17T20:32:52.742Z,95835.19
2022-08-17T20:35:39.464Z,95838.97
2022-08-17T20:38:14.262Z,95832.00
2022-08-17T20:41:01.107Z,95831.41
2022-08-17T20:43:33.973Z,95834.97
2022-08-17T20:46:32.894Z,95830.38
2022-08-17T20:49:14.975Z,95820.72
2022-08-17T20:52:00.840Z,95815.94
2022-08-17T20:54:54.818Z,95805.91
2022-08-17T20:57:37.571Z,95797.94
2022-08-17T21:00:16.351Z,95813.88
2022-08-17T21:02:51.955Z,95804.47
2022-08-17T21:05:34.666Z,95807.03
2022-08-17T21:08:17.110Z,95802.03
2022-08-17T21:10:47.009Z,95793.03
2022-08-17T21:13:15.348Z,95799.19
2022-08-17T21:15:52.506Z,95794.94
2022-08-17T21:19:10.101Z,95800.19
2022-08-17T21:21:58.161Z,95803.34
2022-08-17T21:25:02.656Z,95795.19
2022-08-17T21:28:02.951Z,95807.50
2022-08-17T21:30:30.360Z,95794.84
2022-08-17T21:33:20.075Z,95792.34
2022-08-17T21:36:11.776Z,95787.75
2022-08-17T21:38:47.205Z,95787.91
2022-08-17T21:41:31.187Z,95778.75
2022-08-17T21:44:46.971Z,95785.72
2022-08-17T21:47:18.737Z,95772.75
2022-08-17T21:49:45.575Z,95779.25
2022-08-17T21:52:17.576Z,95783.53
2022-08-17T21:55:02.359Z,95779.72
2022-08-17T21:57:30.105Z,95776.41
2022-08-17T22:00:00.440Z,95776.06
2022-08-17T22:02:41.743Z,95777.78
2022-08-17T22:05:14.619Z,95781.13
2022-08-17T22:07:45.745Z,95777.50
2022-08-17T22:10:33.255Z,95776.53
2022-08-17T22:13:21.513Z,95778.75
2022-08-17T22:16:15.614Z,95774.22
2022-08-17T22:18:57.558Z,95776.72
2022-08-17T22:21:24.637Z,95787.19
2022-08-17T22:24:21.125Z,95795.88
2022-08-17T22:27:11.897Z,95801.25
2022-08-17T22:29:53.182Z,95804.59
2022-08-17T22:32:46.320Z,95824.81
2022-08-17T22:35:24.872Z,95832.50
2022-08-17T22:37:52.013Z,95857.56
2022-08-17T22:40:31.771Z,95879.88
2022-08-17T22:43:00.730Z,95914.38
2022-08-17T22:45:33.763Z,95948.44
2022-08-17T22:48:02.026Z,95996.28
2022-08-17T22:50:32.966Z,96005.25
2022-08-17T22:53:32.785Z,95998.59
2022-08-17T22:56:18.611Z,95987.13
2022-08-17T22:59:13.307Z,96022.41
2022-08-17T23:01:42.777Z,96034.56
2022-08-17T23:04:35.776Z,96045.19
2022-08-17T23:07:02.682Z,96048.19
2022-08-17T23:09:29.894Z,96043.06
2022-08-17T23:11:58.627Z,96053.00
2022-08-17T23:14:31.379Z,96053.63
2022-08-17T23:16:59.590Z,96053.69
2022-08-17T23:19:27.953Z,96069.03
2022-08-17T23:21:56.303Z,96071.22
2022-08-17T23:24:26.632Z,96073.53
2022-08-17T23:26:57.235Z,96065.63
2022-08-17T23:29:29.560Z,96055.44
2022-08-17T23:31:59.877Z,96057.09
2022-08-17T23:34:28.090Z,96053.94
2022-08-17T23:36:56.241Z,96049.16
2022-08-17T23:39:27.519Z,96050.16
2022-08-17T23:41:58.199Z,96044.34
2022-08-17T23:44:25.821Z,96036.94
2022-08-17T23:46:53.385Z,96017.56
2022-08-17T23:49:20.626Z,96000.97
2022-08-17T23:51:48.459Z,95996.13
2022-08-17T23:54:44.041Z,95992.91
2022-08-17T23:57:17.665Z,96000.38
2022-08-17T23:59:45.515Z,96004.72
